Time;durP1;ratioP1;P1;durP2;ratioP2;P2;SDS_P1;SDS_P2;PMS_P1;PMS_P2;Temp;Humidity;BMP_temperature;BMP_pressure;BME280_temperature;BME280_humidity;BME280_pressure;Samples;Min_cycle;Max_cycle;Signal;HPM_P1;HPM_P2
2021/11/09 00:00:47;;;;;;;24.52;10.52;;;;;;;8.58;80.45;102447.78;4995350;28;20043;-52
2021/11/09 00:03:16;;;;;;;25.85;10.68;;;;;;;8.58;80.44;102445.06;4994323;28;20542;-51
2021/11/09 00:05:59;;;;;;;23.75;9.35;;;;;;;8.58;80.17;102445.06;4995297;28;20042;-50
2021/11/09 00:08:32;;;;;;;23.52;9.15;;;;;;;8.57;80.38;102433.38;4994690;28;20051;-52
2021/11/09 00:11:00;;;;;;;25.58;9.48;;;;;;;8.56;79.90;102439.81;4995238;28;20077;-52
2021/11/09 00:13:28;;;;;;;24.23;10.05;;;;;;;8.52;79.83;102442.16;4994612;28;20881;-52
2021/11/09 00:15:56;;;;;;;30.63;10.98;;;;;;;8.49;80.29;102448.03;4995027;28;20057;-52
2021/11/09 00:18:24;;;;;;;28.38;11.15;;;;;;;8.52;81.25;102435.91;4994210;28;20516;-51
2021/11/09 00:20:52;;;;;;;27.77;11.77;;;;;;;8.56;80.55;102439.00;4994716;28;20042;-50
2021/11/09 00:23:20;;;;;;;25.00;10.60;;;;;;;8.56;79.90;102433.56;4995253;28;20505;-52
2021/11/09 00:25:48;;;;;;;20.52;9.40;;;;;;;8.52;80.35;102434.00;4994675;28;20034;-50
2021/11/09 00:28:16;;;;;;;27.85;11.00;;;;;;;8.55;80.58;102440.06;4994647;28;20070;-51
2021/11/09 00:30:44;;;;;;;27.58;9.82;;;;;;;8.56;80.00;102441.72;4993500;28;20061;-53
2021/11/09 00:33:13;;;;;;;27.45;9.85;;;;;;;8.56;80.24;102444.44;4994185;28;20050;-51
2021/11/09 00:35:41;;;;;;;22.98;10.35;;;;;;;8.56;80.26;102452.59;4994668;28;20100;-52
2021/11/09 00:38:10;;;;;;;21.40;9.10;;;;;;;8.56;80.19;102463.44;4994548;28;20130;-52
2021/11/09 00:40:42;;;;;;;23.42;9.50;;;;;;;8.53;79.79;102460.09;4994710;28;20042;-52
2021/11/09 00:43:12;;;;;;;23.80;9.65;;;;;;;8.49;79.86;102461.59;4994704;28;20042;-51
2021/11/09 00:45:41;;;;;;;23.00;9.23;;;;;;;8.45;80.06;102463.06;4994400;28;20038;-51
2021/11/09 00:48:10;;;;;;;21.75;8.70;;;;;;;8.41;79.26;102455.56;4987334;28;20034;-50
2021/11/09 00:50:40;;;;;;;22.08;8.95;;;;;;;8.32;79.37;102457.63;4994026;28;20569;-50
2021/11/09 00:53:09;;;;;;;25.80;9.10;;;;;;;8.26;79.20;102453.91;4994364;28;20050;-49
2021/11/09 00:55:39;;;;;;;19.25;8.80;;;;;;;8.24;79.87;102450.56;4994653;28;20050;-51
2021/11/09 00:58:08;;;;;;;20.10;9.35;;;;;;;8.22;80.44;102452.63;4993552;28;20101;-52
2021/11/09 01:00:36;;;;;;;24.00;9.45;;;;;;;8.22;79.66;102458.06;4994051;28;20125;-51
2021/11/09 01:03:06;;;;;;;21.25;9.60;;;;;;;8.20;79.54;102454.75;4998496;28;20057;-52
2021/11/09 01:05:35;;;;;;;22.50;9.13;;;;;;;8.17;79.91;102459.75;4998336;28;20054;-50
2021/11/09 01:08:09;;;;;;;22.40;9.40;;;;;;;8.19;80.54;102468.53;4996927;28;20070;-51
2021/11/09 01:10:43;;;;;;;24.38;9.63;;;;;;;8.20;80.77;102467.47;4991160;28;20043;-51
2021/11/09 01:13:13;;;;;;;24.83;9.43;;;;;;;8.21;80.42;102469.16;4993763;28;20072;-49
2021/11/09 01:15:49;;;;;;;25.98;9.75;;;;;;;8.20;80.27;102468.34;4993779;28;20038;-52
2021/11/09 01:18:26;;;;;;;24.52;9.65;;;;;;;8.21;79.92;102467.28;4993093;28;20046;-50
2021/11/09 01:20:55;;;;;;;24.08;9.48;;;;;;;8.16;79.46;102463.53;4993737;28;20122;-51
2021/11/09 01:23:23;;;;;;;23.52;9.05;;;;;;;8.11;79.65;102458.75;4993828;28;20050;-51
2021/11/09 01:25:51;;;;;;;29.38;10.07;;;;;;;8.08;80.14;102470.84;4993158;28;20118;-51
2021/11/09 01:28:20;;;;;;;24.92;9.98;;;;;;;8.07;80.61;102466.47;4993238;28;20062;-51
2021/11/09 01:30:49;;;;;;;23.45;8.70;;;;;;;8.06;80.47;102462.09;4993272;28;20046;-51
2021/11/09 01:33:17;;;;;;;23.15;9.65;;;;;;;8.08;80.69;102465.44;4993437;28;20042;-51
2021/11/09 01:35:45;;;;;;;19.38;9.02;;;;;;;8.09;80.47;102467.09;4993011;28;20513;-51
2021/11/09 01:38:13;;;;;;;28.70;8.75;;;;;;;8.08;80.51;102461.84;4993185;28;20038;-52
2021/11/09 01:40:42;;;;;;;23.60;9.68;;;;;;;8.05;80.24;102456.84;4993695;28;20080;-52
2021/11/09 01:43:11;;;;;;;21.60;9.05;;;;;;;8.02;80.21;102468.13;4993328;28;20050;-51
2021/11/09 01:45:39;;;;;;;25.90;9.57;;;;;;;7.95;79.80;102467.31;4992926;28;20074;-51
2021/11/09 01:48:07;;;;;;;22.30;9.93;;;;;;;7.91;80.50;102469.59;4992549;28;20129;-49
2021/11/09 01:50:38;;;;;;;22.50;9.85;;;;;;;7.92;80.46;102465.84;4993037;28;20053;-52
2021/11/09 01:53:07;;;;;;;23.20;9.68;;;;;;;7.91;80.22;102458.75;4993023;28;20133;-52
2021/11/09 01:55:37;;;;;;;25.58;9.73;;;;;;;7.91;80.62;102461.44;4992706;28;20068;-51
2021/11/09 01:58:07;;;;;;;24.15;9.70;;;;;;;7.90;80.55;102471.47;4992582;28;20053;-53
2021/11/09 02:00:58;;;;;;;18.45;8.85;;;;;;;7.93;81.12;102464.78;4992791;28;20042;-54
2021/11/09 02:03:27;;;;;;;23.92;8.85;;;;;;;7.95;79.59;102472.75;4992779;28;20043;-49
2021/11/09 02:05:55;;;;;;;23.10;9.13;;;;;;;7.91;80.35;102472.31;4992708;28;20444;-52
2021/11/09 02:08:27;;;;;;;20.73;8.57;;;;;;;7.89;79.92;102469.00;4992673;28;20034;-47
2021/11/09 02:10:55;;;;;;;24.00;8.82;;;;;;;7.88;80.32;102467.31;4979189;28;20544;-51
2021/11/09 02:13:24;;;;;;;21.80;8.60;;;;;;;7.89;80.16;102469.00;4992575;28;20612;-51
2021/11/09 02:15:53;;;;;;;25.95;9.15;;;;;;;7.88;80.48;102472.75;4993029;28;20092;-52
2021/11/09 02:18:21;;;;;;;21.42;9.15;;;;;;;7.89;80.27;102471.72;4990636;28;20113;-52
2021/11/09 02:21:02;;;;;;;24.30;9.25;;;;;;;7.94;80.44;102471.91;4991953;28;20125;-53
2021/11/09 02:23:32;;;;;;;21.13;8.77;;;;;;;7.96;80.46;102485.25;4993029;28;20058;-52
2021/11/09 02:26:01;;;;;;;22.33;9.13;;;;;;;7.97;79.52;102485.06;4992686;28;20042;-52
2021/11/09 02:28:30;;;;;;;21.20;9.07;;;;;;;7.96;79.59;102477.97;4982690;28;20137;-51
2021/11/09 02:30:59;;;;;;;23.40;9.13;;;;;;;7.96;79.37;102477.97;4989441;28;20469;-52
2021/11/09 02:33:27;;;;;;;24.25;8.93;;;;;;;7.96;80.03;102483.41;4992686;28;20386;-52
2021/11/09 02:35:55;;;;;;;21.98;8.73;;;;;;;7.97;79.61;102476.09;4992707;28;20129;-52
2021/11/09 02:38:22;;;;;;;24.92;9.05;;;;;;;7.94;79.91;102476.47;4992222;28;20126;-52
2021/11/09 02:40:51;;;;;;;25.92;9.10;;;;;;;7.90;79.25;102466.06;4992264;28;20053;-51
2021/11/09 02:43:20;;;;;;;24.63;9.00;;;;;;;7.84;79.61;102468.75;4992544;28;20046;-52
2021/11/09 02:48:58;;;;;;;24.30;8.32;;;;;;;7.80;80.83;102475.66;4992210;28;20480;-55
2021/11/09 02:51:37;;;;;;;24.08;9.30;;;;;;;7.76;80.28;102479.84;4992589;28;20602;-52
2021/11/09 02:54:11;;;;;;;25.10;9.35;;;;;;;7.70;80.19;102467.94;4992414;28;20479;-50
2021/11/09 02:57:00;;;;;;;18.13;8.48;;;;;;;7.65;80.53;102471.28;4991725;28;20057;-52
2021/11/09 03:10:16;;;;;;;19.08;8.10;;;;;;;7.63;80.92;102462.50;4992388;28;20055;-51
2021/11/09 03:12:45;;;;;;;22.02;9.25;;;;;;;7.62;80.85;102460.81;4991992;28;20046;-52
2021/11/09 03:15:15;;;;;;;24.88;9.45;;;;;;;7.62;80.21;102463.53;4992153;28;20060;-52
2021/11/09 03:17:47;;;;;;;20.73;8.63;;;;;;;7.60;80.24;102471.06;4991800;28;20109;-50
2021/11/09 03:20:26;;;;;;;21.95;8.80;;;;;;;7.60;80.57;102471.06;4992108;28;20066;-51
2021/11/09 03:45:13;;;;;;;26.80;9.18;;;;;;;7.43;80.88;102464.34;4994072;28;20490;-49
2021/11/09 03:47:45;;;;;;;25.00;9.70;;;;;;;7.41;80.99;102467.28;4995236;28;20038;-51
2021/11/09 03:50:14;;;;;;;23.38;9.20;;;;;;;7.38;81.02;102466.84;4994987;28;20064;-53
2021/11/09 03:52:49;;;;;;;21.98;8.55;;;;;;;7.33;80.98;102464.75;4994907;28;20058;-49
2021/11/09 03:55:29;;;;;;;22.40;9.43;;;;;;;7.30;81.04;102459.75;4995086;28;20385;-52
2021/11/09 03:58:11;;;;;;;26.65;10.35;;;;;;;7.31;80.81;102466.00;4994774;28;20085;-52
2021/11/09 04:00:52;;;;;;;25.90;9.43;;;;;;;7.29;81.47;102462.66;4995400;28;20047;-51
2021/11/09 04:16:57;;;;;;;26.20;9.63;;;;;;;7.46;81.23;102474.81;4877738;29;20166;-52
2021/11/09 04:22:42;;;;;;;25.00;9.68;;;;;;;7.57;81.52;102485.03;4877978;29;20516;-51
2021/11/09 04:25:11;;;;;;;24.15;9.40;;;;;;;7.56;80.31;102480.66;4878059;29;20141;-52
2021/11/09 04:27:47;;;;;;;26.08;9.30;;;;;;;7.55;80.14;102478.16;4877253;29;20061;-52
2021/11/09 04:33:33;;;;;;;22.23;9.45;;;;;;;7.44;80.82;102487.75;4877243;29;20419;-52
2021/11/09 04:36:59;;;;;;;22.52;9.23;;;;;;;7.36;79.95;102490.63;4877204;29;20041;-51
2021/11/09 05:11:11;;;;;;;24.38;9.32;;;;;;;7.20;82.07;102500.81;4993580;28;20038;-52
2021/11/09 05:13:39;;;;;;;25.42;9.45;;;;;;;7.20;80.75;102503.53;4994039;28;20409;-51
2021/11/09 05:16:07;;;;;;;26.13;9.02;;;;;;;7.15;81.65;102510.63;4993771;28;20058;-52
2021/11/09 05:18:35;;;;;;;25.60;9.48;;;;;;;7.12;81.96;102511.84;5008708;28;20104;-51
2021/11/09 05:21:03;;;;;;;23.30;9.40;;;;;;;7.13;81.38;102507.25;4992962;28;20052;-51
2021/11/09 05:23:31;;;;;;;23.25;9.88;;;;;;;7.09;81.57;102506.81;4993783;28;20066;-52
2021/11/09 05:25:58;;;;;;;25.65;9.85;;;;;;;7.00;80.98;102508.06;4993921;28;20093;-51
2021/11/09 05:28:27;;;;;;;23.23;9.20;;;;;;;6.93;81.90;102507.19;4993393;28;20097;-50
2021/11/09 05:30:55;;;;;;;26.98;10.80;;;;;;;6.92;82.17;102514.47;4993911;28;20397;-51
2021/11/09 05:33:23;;;;;;;24.85;9.32;;;;;;;6.92;82.24;102516.34;4993230;28;20081;-52
2021/11/09 05:35:52;;;;;;;21.92;9.75;;;;;;;6.94;82.94;102517.81;4993099;28;20046;-52
2021/11/09 05:38:27;;;;;;;21.77;9.55;;;;;;;7.01;82.65;102525.97;4992970;28;20085;-51
2021/11/09 05:40:59;;;;;;;25.63;9.65;;;;;;;7.08;82.24;102520.59;4993854;28;20038;-51
2021/11/09 05:43:28;;;;;;;22.33;9.93;;;;;;;7.01;81.76;102515.13;4993211;28;20034;-51
2021/11/09 05:45:55;;;;;;;21.48;9.77;;;;;;;6.95;82.39;102518.66;4993303;28;20042;-51
2021/11/09 05:48:23;;;;;;;23.15;9.82;;;;;;;6.97;83.03;102525.53;4992818;28;20085;-55
2021/11/09 05:50:51;;;;;;;22.80;10.30;;;;;;;7.01;81.95;102528.69;4992528;28;20473;-52
2021/11/09 05:53:19;;;;;;;25.27;10.27;;;;;;;6.97;82.66;102524.69;4992940;28;20125;-50
2021/11/09 05:55:47;;;;;;;24.35;10.25;;;;;;;7.00;82.33;102524.31;4993205;28;20129;-51
2021/11/09 05:58:14;;;;;;;22.08;9.82;;;;;;;7.02;82.64;102538.47;4992950;28;20050;-51
2021/11/09 06:00:42;;;;;;;33.05;11.82;;;;;;;7.04;81.96;102541.81;4993290;28;20050;-53
2021/11/09 06:03:11;;;;;;;24.83;10.00;;;;;;;6.97;81.61;102547.22;4992785;28;20046;-51
2021/11/09 06:05:39;;;;;;;25.85;9.32;;;;;;;6.93;82.28;102540.53;4992237;28;20531;-51
2021/11/09 06:08:06;;;;;;;30.75;10.95;;;;;;;6.90;82.50;102540.94;4992540;28;20497;-51
2021/11/09 06:10:34;;;;;;;21.35;9.55;;;;;;;6.91;83.13;102539.06;4993006;28;20133;-50
2021/11/09 06:13:02;;;;;;;28.30;11.45;;;;;;;6.92;82.79;102538.03;4992744;28;20489;-52
2021/11/09 06:15:30;;;;;;;26.15;10.77;;;;;;;6.93;82.90;102537.00;4992461;28;20043;-51
2021/11/09 06:17:58;;;;;;;21.90;10.27;;;;;;;6.92;82.35;102541.56;4992079;28;20057;-51
2021/11/09 06:20:25;;;;;;;20.38;9.52;;;;;;;6.89;82.65;102554.69;4992574;28;20050;-48
2021/11/09 06:22:59;;;;;;;20.27;9.07;;;;;;;6.88;82.94;102550.28;4993218;28;20066;-51
2021/11/09 06:25:27;;;;;;;24.75;9.98;;;;;;;6.91;83.20;102555.34;4992438;28;20035;-51
2021/11/09 06:27:55;;;;;;;24.20;10.10;;;;;;;6.85;82.93;102553.41;4994977;28;20121;-52
2021/11/09 06:30:23;;;;;;;23.92;10.48;;;;;;;6.77;82.23;102557.97;4997297;28;20038;-52
2021/11/09 06:32:51;;;;;;;29.55;11.27;;;;;;;6.74;82.54;102558.38;4997065;28;20083;-52
2021/11/09 06:35:19;;;;;;;30.50;10.70;;;;;;;6.68;82.88;102548.31;4993456;28;20053;-52
2021/11/09 06:37:47;;;;;;;24.48;9.52;;;;;;;6.67;83.14;102556.66;4992794;28;20054;-51
2021/11/09 06:40:15;;;;;;;28.67;10.50;;;;;;;6.68;83.02;102559.16;4992701;28;20047;-51
2021/11/09 06:42:43;;;;;;;23.95;10.50;;;;;;;6.68;83.19;102559.16;5008137;28;20053;-47
2021/11/09 06:45:11;;;;;;;26.45;9.82;;;;;;;6.70;83.87;102567.91;4992128;28;20051;-49
2021/11/09 06:47:39;;;;;;;26.08;9.48;;;;;;;6.74;82.88;102565.66;4992359;28;20125;-49
2021/11/09 06:50:12;;;;;;;28.88;10.25;;;;;;;6.73;83.42;102562.09;4993302;28;20046;-51
2021/11/09 06:52:40;;;;;;;25.00;9.52;;;;;;;6.69;82.73;102570.84;4992467;28;20568;-49
2021/11/09 06:55:08;;;;;;;24.05;10.27;;;;;;;6.65;83.22;102570.38;4992903;28;20050;-52
2021/11/09 06:57:43;;;;;;;28.25;9.43;;;;;;;6.59;82.67;102572.03;4299770;28;10000303;-49
2021/11/09 07:00:17;;;;;;;26.63;9.98;;;;;;;6.59;84.08;102576.59;4989338;28;20050;-50
2021/11/09 07:02:45;;;;;;;22.75;9.95;;;;;;;6.64;83.64;102570.56;4990141;28;20030;-52
2021/11/09 07:05:14;;;;;;;22.90;10.13;;;;;;;6.67;83.45;102584.56;4990235;28;20043;-52
2021/11/09 07:07:42;;;;;;;27.13;10.38;;;;;;;6.70;83.34;102583.34;4990405;28;20100;-51
2021/11/09 07:10:10;;;;;;;27.58;9.57;;;;;;;6.68;83.03;102580.81;4980601;28;20046;-48
2021/11/09 07:12:39;;;;;;;23.63;9.48;;;;;;;6.69;82.64;102582.50;4994457;28;20480;-54
2021/11/09 07:15:08;;;;;;;28.45;10.48;;;;;;;6.64;82.90;102587.69;4993837;28;20408;-52
2021/11/09 07:17:39;;;;;;;27.00;9.95;;;;;;;6.65;82.81;102591.22;4993589;28;20050;-52
2021/11/09 07:20:09;;;;;;;24.67;9.52;;;;;;;6.68;83.46;102596.25;4992909;28;20882;-52
2021/11/09 07:22:37;;;;;;;23.67;10.13;;;;;;;6.69;83.07;102593.34;4993786;28;20050;-51
2021/11/09 07:25:08;;;;;;;23.85;10.35;;;;;;;6.68;82.79;102597.06;4993886;28;20916;-51
2021/11/09 07:27:37;;;;;;;23.15;9.63;;;;;;;6.71;83.30;102602.13;4993708;28;20061;-51
2021/11/09 07:30:07;;;;;;;25.00;10.13;;;;;;;6.73;83.60;102601.91;4993442;28;20050;-52
2021/11/09 07:32:35;;;;;;;21.38;9.32;;;;;;;6.74;82.78;102612.53;4994889;28;20054;-55
2021/11/09 07:35:05;;;;;;;22.48;9.75;;;;;;;6.74;82.63;102617.97;4995913;28;20046;-51
2021/11/09 07:37:34;;;;;;;25.95;9.88;;;;;;;6.74;82.55;102609.84;4995312;28;20584;-48
2021/11/09 07:40:02;;;;;;;21.75;9.82;;;;;;;6.73;83.39;102610.03;4995647;28;20547;-52
2021/11/09 07:42:30;;;;;;;23.55;9.40;;;;;;;6.74;83.30;102617.97;4982187;28;20471;-52
2021/11/09 07:44:58;;;;;;;24.70;8.95;;;;;;;6.75;82.71;102619.63;5010574;28;20493;-51
2021/11/09 07:47:26;;;;;;;21.52;9.43;;;;;;;6.79;83.28;102620.91;4995036;28;20077;-52
2021/11/09 07:49:54;;;;;;;21.20;8.73;;;;;;;6.80;82.50;102625.28;4995031;28;20133;-52
2021/11/09 07:52:22;;;;;;;21.70;8.35;;;;;;;6.81;83.45;102613.41;4994650;28;20046;-52
2021/11/09 07:54:55;;;;;;;22.45;7.78;;;;;;;6.84;83.42;102612.19;4995522;28;20035;-50
2021/11/09 07:57:22;;;;;;;20.15;8.80;;;;;;;6.88;82.89;102626.16;4995748;28;20100;-52
2021/11/09 08:00:03;;;;;;;26.52;9.20;;;;;;;6.87;82.61;102629.91;4995202;28;20038;-52
2021/11/09 08:03:01;;;;;;;25.05;9.40;;;;;;;6.87;83.24;102629.91;4995114;28;20527;-49
2021/11/09 08:05:35;;;;;;;19.27;8.68;;;;;;;6.86;82.69;102626.38;4995567;28;20050;-49
2021/11/09 08:08:09;;;;;;;25.23;9.10;;;;;;;6.86;83.20;102628.25;4994875;28;20057;-49
2021/11/09 08:10:37;;;;;;;23.55;9.05;;;;;;;6.87;83.28;102629.91;4995300;28;20050;-50
2021/11/09 08:13:04;;;;;;;22.33;9.93;;;;;;;6.81;83.96;102626.13;4994757;28;20042;-51
2021/11/09 08:15:33;;;;;;;26.65;10.23;;;;;;;6.79;83.81;102631.75;4995098;28;20133;-51
2021/11/09 08:18:01;;;;;;;24.95;9.25;;;;;;;6.75;84.06;102630.47;4995029;28;20042;-51
2021/11/09 08:20:46;;;;;;;20.08;8.50;;;;;;;6.79;84.86;102637.16;4989183;28;20043;-52
2021/11/09 08:23:14;;;;;;;23.27;9.20;;;;;;;6.83;85.00;102634.88;4994609;28;20045;-52
2021/11/09 08:25:42;;;;;;;21.77;8.30;;;;;;;6.86;84.65;102629.09;4994621;28;20054;-52
2021/11/09 08:28:10;;;;;;;25.58;9.77;;;;;;;6.88;84.82;102624.31;4993900;28;20039;-50
2021/11/09 08:30:38;;;;;;;22.58;9.90;;;;;;;6.88;84.79;102623.44;4994214;28;20101;-52
2021/11/09 08:33:07;;;;;;;25.80;9.73;;;;;;;6.86;85.70;102625.56;4994524;28;20455;-50
2021/11/09 08:35:35;;;;;;;22.90;9.00;;;;;;;6.86;85.93;102618.25;4993585;28;20046;-48
2021/11/09 08:38:06;;;;;;;29.30;10.40;;;;;;;6.87;85.88;102622.63;4994303;28;20057;-50
2021/11/09 08:40:36;;;;;;;26.13;9.43;;;;;;;6.91;86.23;102625.78;4994123;28;20153;-51
2021/11/09 08:43:04;;;;;;;24.27;9.30;;;;;;;6.96;85.30;102629.56;4993783;28;20449;-52
2021/11/09 08:45:39;;;;;;;22.23;8.75;;;;;;;7.01;86.03;102628.97;4993697;28;20461;-51
2021/11/09 08:48:12;;;;;;;21.00;8.07;;;;;;;7.05;85.48;102630.25;4994779;28;20050;-48
2021/11/09 08:51:13;;;;;;;21.13;7.90;;;;;;;7.10;85.91;102622.34;4993439;28;20053;-51
2021/11/09 08:53:45;;;;;;;25.50;8.70;;;;;;;7.14;85.65;102634.44;4990817;28;20378;-50
2021/11/09 09:04:12;;;;;;;21.08;7.78;;;;;;;7.21;86.00;102643.44;4994172;28;20121;-51
2021/11/09 09:04:28;;;;;;;26.23;9.40;;;;;;;7.24;85.96;102634.94;4993409;28;20493;-50
2021/11/09 09:06:59;;;;;;;25.58;8.88;;;;;;;7.33;87.47;102632.03;4993623;28;20149;-48
2021/11/09 09:09:27;;;;;;;21.73;7.65;;;;;;;7.36;87.87;102626.22;4994217;28;20089;-51
2021/11/09 09:11:57;;;;;;;21.98;8.65;;;;;;;7.35;86.83;102625.38;4993750;28;20066;-51
2021/11/09 09:14:26;;;;;;;21.65;8.18;;;;;;;7.36;87.50;102626.22;5007564;28;20066;-49
2021/11/09 09:16:55;;;;;;;27.30;9.82;;;;;;;7.36;87.76;102624.34;4993344;28;20037;-51
2021/11/09 09:19:31;;;;;;;26.33;9.35;;;;;;;7.39;86.94;102625.81;4992972;28;20417;-48
2021/11/09 09:22:14;;;;;;;21.10;8.77;;;;;;;7.47;89.50;102631.06;4993364;28;20406;-49
2021/11/09 09:24:58;;;;;;;18.40;7.65;;;;;;;7.47;88.75;102633.78;4992084;28;20045;-49
2021/11/09 09:52:33;;;;;;;26.70;9.05;;;;;;;7.53;89.05;102626.69;4992863;28;20054;-52
2021/11/09 09:55:14;;;;;;;28.85;10.35;;;;;;;7.56;88.71;102621.72;4992988;28;20045;-52
2021/11/09 09:57:42;;;;;;;28.25;8.95;;;;;;;7.67;89.57;102618.41;4993125;28;20046;-51
2021/11/09 10:00:11;;;;;;;19.23;7.95;;;;;;;7.74;90.07;102623.00;4993260;28;20054;-51
2021/11/09 10:02:49;;;;;;;21.50;8.13;;;;;;;7.87;94.17;102623.88;4991883;28;20050;-50
2021/11/09 10:05:18;;;;;;;23.98;8.48;;;;;;;7.98;97.52;102622.44;4992904;28;20057;-50
2021/11/09 10:07:51;;;;;;;19.52;7.25;;;;;;;8.08;95.92;102627.44;4993168;28;20042;-51
2021/11/09 10:10:26;;;;;;;25.10;8.60;;;;;;;8.14;95.99;102623.09;4992876;28;20045;-51
2021/11/09 10:13:04;;;;;;;22.33;7.60;;;;;;;8.16;94.28;102615.59;4992491;28;20046;-48
2021/11/09 10:15:34;;;;;;;19.10;7.85;;;;;;;8.21;97.41;102626.66;4991976;28;20117;-50
2021/11/09 10:18:05;;;;;;;25.33;7.90;;;;;;;8.24;96.77;102629.78;4993240;28;20054;-51
2021/11/09 10:20:43;;;;;;;28.08;8.25;;;;;;;8.30;96.71;102618.09;4992933;28;20042;-48
2021/11/09 10:23:19;;;;;;;24.38;9.13;;;;;;;8.43;100.00;102622.72;4992687;28;20061;-49
2021/11/09 10:25:48;;;;;;;26.50;9.23;;;;;;;8.47;100.00;102623.97;4992309;28;20046;-52
2021/11/09 10:28:19;;;;;;;26.00;9.25;;;;;;;8.39;98.87;102632.28;4991960;28;20050;-51
2021/11/09 10:31:16;;;;;;;20.08;7.18;;;;;;;8.46;100.00;102637.75;4992928;28;20042;-51
2021/11/09 10:33:51;;;;;;;22.02;8.10;;;;;;;8.48;100.00;102625.63;4951812;29;20059;-51
2021/11/09 10:36:25;;;;;;;21.48;8.27;;;;;;;8.43;99.69;102627.31;4949831;29;20071;-51
2021/11/09 10:38:53;;;;;;;20.63;7.47;;;;;;;8.51;100.00;102622.53;4934296;29;20545;-51
2021/11/09 10:41:21;;;;;;;21.50;7.90;;;;;;;8.57;100.00;102622.72;4935811;28;20050;-49
2021/11/09 10:43:51;;;;;;;27.13;8.88;;;;;;;8.45;97.88;102626.06;4949577;29;20115;-51
2021/11/09 10:46:28;;;;;;;21.50;8.80;;;;;;;8.45;96.63;102626.06;4949052;29;20047;-51
2021/11/09 10:48:58;;;;;;;22.13;8.05;;;;;;;8.60;100.00;102622.28;4950427;29;20047;-51
2021/11/09 10:51:52;;;;;;;19.90;8.40;;;;;;;8.68;100.00;102622.06;4951214;29;20059;-51
2021/11/09 10:54:56;;;;;;;20.08;7.35;;;;;;;8.72;100.00;102615.16;4949633;29;20143;-50
2021/11/09 10:57:40;;;;;;;23.02;8.43;;;;;;;9.01;100.00;102618.44;4937099;29;20055;-51
2021/11/09 11:05:23;;;;;;;24.90;9.20;;;;;;;8.56;94.46;102615.59;4947747;29;20103;-51
2021/11/09 11:08:00;;;;;;;22.58;8.57;;;;;;;8.48;93.06;102605.78;4942738;29;20040;-51
2021/11/09 11:10:30;;;;;;;419.42;235.98;;;;;;;8.71;100.00;102611.63;4969570;28;20061;-50
2021/11/09 11:13:23;;;;;;;321.17;185.07;;;;;;;8.81;99.71;102613.06;4990733;28;20050;-51
2021/11/09 11:16:05;;;;;;;331.30;174.32;;;;;;;8.87;100.00;102606.75;4991971;28;20238;-50
2021/11/09 11:18:39;;;;;;;215.73;106.35;;;;;;;8.90;100.00;102609.91;4992370;28;20042;-52
2021/11/09 11:21:09;;;;;;;170.15;91.38;;;;;;;8.99;100.00;102610.50;4991732;28;20121;-51
2021/11/09 11:23:38;;;;;;;133.77;72.00;;;;;;;8.98;100.00;102603.41;4991340;28;20072;-50
2021/11/09 11:26:09;;;;;;;50.47;26.67;;;;;;;8.93;97.70;102612.19;4987428;28;20433;-47
2021/11/09 11:28:40;;;;;;;196.50;96.30;;;;;;;8.86;95.59;102616.81;4980039;28;20105;-48
2021/11/09 11:31:09;;;;;;;78.90;44.42;;;;;;;8.91;96.38;102613.47;4991674;28;20133;-50
2021/11/09 11:33:38;;;;;;;124.88;65.88;;;;;;;8.95;98.96;102604.66;4991587;28;20069;-51
2021/11/09 11:36:06;;;;;;;210.38;111.63;;;;;;;9.02;99.00;102604.66;4981796;28;20039;-49
2021/11/09 11:38:43;;;;;;;130.93;67.15;;;;;;;9.22;100.00;102609.19;4991498;28;20069;-51
2021/11/09 11:41:11;;;;;;;190.52;94.05;;;;;;;9.30;100.00;102606.22;4990915;28;20042;-52
2021/11/09 11:43:48;;;;;;;150.50;75.90;;;;;;;9.22;99.36;102611.91;4991770;28;20421;-51
2021/11/09 11:46:32;;;;;;;136.63;71.15;;;;;;;9.20;98.87;102609.41;4992670;28;20155;-51
2021/11/09 11:49:03;;;;;;;218.48;113.53;;;;;;;9.43;100.00;102610.75;4991570;28;20121;-51
2021/11/09 11:51:39;;;;;;;211.60;103.97;;;;;;;9.72;100.00;102602.03;5006193;28;20050;-51
2021/11/09 11:54:08;;;;;;;26.63;8.75;;;;;;;9.35;96.15;102603.69;4990851;28;20038;-52
2021/11/09 11:56:44;;;;;;;30.30;8.80;;;;;;;9.13;91.70;102600.44;4994378;28;20080;-51
2021/11/09 11:59:33;;;;;;;23.33;8.48;;;;;;;9.08;91.55;102592.91;4995352;28;20042;-51
2021/11/09 12:02:06;;;;;;;24.48;8.43;;;;;;;9.17;91.42;102588.06;4988587;28;20085;-51
2021/11/09 12:04:43;;;;;;;30.92;11.93;;;;;;;9.23;89.92;102587.19;4991565;28;20053;-50
2021/11/09 12:07:15;;;;;;;162.27;82.63;;;;;;;9.33;94.47;102584.00;4995308;28;20056;-51
2021/11/09 12:09:45;;;;;;;57.20;28.17;;;;;;;9.41;91.12;102581.06;4994799;28;20125;-52
2021/11/09 12:12:21;;;;;;;71.47;37.33;;;;;;;9.37;90.93;102575.22;4994963;28;20046;-52
2021/11/09 12:15:05;;;;;;;43.00;20.15;;;;;;;9.35;88.92;102576.47;4995167;28;20050;-52
2021/11/09 12:17:44;;;;;;;53.75;27.38;;;;;;;9.33;88.54;102578.56;4995454;28;20121;-53
2021/11/09 12:20:20;;;;;;;120.78;63.42;;;;;;;9.52;96.75;102572.19;4994875;28;20034;-51
2021/11/09 12:22:52;;;;;;;84.45;41.42;;;;;;;9.55;94.17;102576.41;5009423;28;20043;-48
2021/11/09 12:25:23;;;;;;;81.53;40.95;;;;;;;9.64;95.76;102569.63;4994841;28;20052;-48
2021/11/09 12:27:53;;;;;;;93.88;47.00;;;;;;;9.76;100.00;102570.59;4995301;28;20054;-48
2021/11/09 12:30:36;;;;;;;190.40;100.78;;;;;;;9.91;100.00;102558.56;4995182;28;20453;-49
2021/11/09 12:33:28;;;;;;;85.82;43.20;;;;;;;10.07;100.00;102563.47;4994729;28;20393;-51
2021/11/09 12:36:11;;;;;;;128.43;66.55;;;;;;;10.15;100.00;102560.47;4985339;28;20054;-51
2021/11/09 12:38:42;;;;;;;126.15;64.85;;;;;;;10.00;100.00;102557.22;4994287;28;20057;-49
2021/11/09 12:41:41;;;;;;;84.72;45.05;;;;;;;10.00;100.00;102557.22;4994508;28;20046;-48
2021/11/09 12:44:09;;;;;;;91.88;47.65;;;;;;;9.95;100.00;102546.16;4946586;28;20083;-51
2021/11/09 12:46:43;;;;;;;84.10;42.45;;;;;;;9.88;100.00;102548.09;4934637;29;20432;-49
2021/11/09 12:49:24;;;;;;;74.72;35.75;;;;;;;9.97;99.43;102546.78;4932113;29;20063;-49
2021/11/09 12:51:55;;;;;;;112.82;57.47;;;;;;;9.96;100.00;102540.50;4927431;29;20527;-50
2021/11/09 12:54:28;;;;;;;121.28;60.88;;;;;;;10.00;100.00;102547.16;4917749;29;20055;-50
2021/11/09 12:57:01;;;;;;;89.30;42.75;;;;;;;10.09;100.00;102536.00;4935001;29;20130;-51
2021/11/09 12:59:53;;;;;;;112.90;58.28;;;;;;;10.14;100.00;102544.34;4937460;29;20551;-50
2021/11/09 13:02:28;;;;;;;104.22;51.13;;;;;;;10.28;100.00;102539.63;4934069;29;20458;-47
2021/11/09 13:05:10;;;;;;;100.68;52.70;;;;;;;10.17;100.00;102533.00;4934267;28;20551;-47
2021/11/09 13:07:40;;;;;;;64.60;33.42;;;;;;;10.05;100.00;102530.16;4934184;29;20056;-51
2021/11/09 13:10:20;;;;;;;83.70;44.70;;;;;;;9.99;99.80;102539.22;4933550;29;20127;-51
2021/11/09 13:12:54;;;;;;;49.55;25.63;;;;;;;10.15;96.74;102535.97;4934097;29;20122;-50
2021/11/09 13:15:23;;;;;;;103.43;52.33;;;;;;;10.23;100.00;102529.41;4933384;29;20515;-48
2021/11/09 13:18:03;;;;;;;61.92;30.63;;;;;;;10.10;92.94;102530.34;4929885;29;20065;-50
2021/11/09 13:23:18;;;;;;;42.03;22.30;;;;;;;10.06;93.05;102525.56;4993742;28;20031;-51
2021/11/09 13:25:47;;;;;;;97.38;52.70;;;;;;;10.20;100.00;102522.50;4993175;28;20042;-48
2021/11/09 13:28:24;;;;;;;71.40;36.22;;;;;;;10.27;100.00;102524.31;4993564;28;20081;-51
2021/11/09 13:31:02;;;;;;;65.28;33.38;;;;;;;10.13;95.62;102523.63;5008632;28;20053;-50
2021/11/09 13:33:31;;;;;;;47.33;22.15;;;;;;;10.11;93.31;102518.38;4993079;28;20042;-50
2021/11/09 13:35:59;;;;;;;47.28;19.60;;;;;;;10.03;87.49;102513.25;4992452;28;20064;-52
2021/11/09 13:38:41;;;;;;;64.60;30.00;;;;;;;10.15;94.95;102511.44;4993143;28;20046;-49
2021/11/09 13:41:17;;;;;;;89.13;49.20;;;;;;;10.27;100.00;102507.97;4993246;28;20125;-51
2021/11/09 13:43:56;;;;;;;65.05;33.60;;;;;;;10.31;96.88;102506.50;4989779;28;20046;-50
2021/11/09 13:46:31;;;;;;;59.50;29.75;;;;;;;10.44;100.00;102503.66;4993325;28;20142;-52
2021/11/09 13:49:05;;;;;;;51.90;24.23;;;;;;;10.36;96.81;102504.75;4989787;28;20050;-51